createdAt,value
2022-08-20T00:01:36.281Z,24.40
2022-08-20T00:04:03.123Z,24.20
2022-08-20T00:06:29.884Z,24.10
2022-08-20T00:08:56.632Z,24.30
2022-08-20T00:11:24.085Z,24.20
2022-08-20T00:13:53.000Z,24.40
2022-08-20T00:16:20.136Z,24.40
2022-08-20T00:18:46.900Z,24.20
2022-08-20T00:21:18.787Z,24.40
2022-08-20T00:23:46.680Z,24.40
2022-08-20T00:26:13.469Z,24.40
2022-08-20T00:28:40.372Z,24.50
2022-08-20T00:31:07.761Z,24.40
2022-08-20T00:33:34.559Z,24.50
2022-08-20T00:36:06.639Z,24.40
2022-08-20T00:38:34.289Z,24.40
2022-08-20T00:41:01.076Z,24.40
2022-08-20T00:43:30.897Z,24.20
2022-08-20T00:45:58.376Z,24.50
2022-08-20T00:48:25.801Z,24.20
2022-08-20T00:50:52.616Z,24.40
2022-08-20T00:53:19.393Z,24.50
2022-08-20T00:55:46.143Z,24.40
2022-08-20T00:58:12.921Z,24.40
2022-08-20T01:00:40.385Z,24.30
2022-08-20T01:03:09.933Z,24.30
2022-08-20T01:05:37.513Z,24.40
2022-08-20T01:08:04.376Z,24.40
2022-08-20T01:10:34.798Z,24.30
2022-08-20T01:13:03.309Z,24.40
2022-08-20T01:15:31.822Z,24.60
2022-08-20T01:17:59.276Z,24.30
2022-08-20T01:20:27.612Z,24.30
2022-08-20T01:23:16.047Z,24.30
2022-08-20T01:25:49.268Z,24.20
2022-08-20T01:28:17.124Z,24.50
2022-08-20T01:30:43.857Z,24.50
2022-08-20T01:33:10.563Z,24.50
2022-08-20T01:35:37.929Z,24.30
2022-08-20T01:38:04.768Z,24.40
2022-08-20T01:40:40.635Z,24.40
2022-08-20T01:43:09.675Z,24.40
2022-08-20T01:45:36.793Z,24.30
2022-08-20T01:48:06.873Z,24.50
2022-08-20T01:50:33.628Z,24.50
2022-08-20T01:53:18.816Z,24.30
2022-08-20T01:55:45.575Z,24.30
2022-08-20T01:58:12.376Z,24.30
2022-08-20T02:00:39.331Z,24.30
2022-08-20T02:03:08.639Z,24.50
2022-08-20T02:05:35.970Z,24.20
2022-08-20T02:08:02.887Z,24.50
2022-08-20T02:10:31.654Z,24.30
2022-08-20T02:13:01.850Z,24.50
2022-08-20T02:15:34.584Z,24.40
2022-08-20T02:18:05.411Z,24.30
2022-08-20T02:20:35.109Z,24.40
2022-08-20T02:23:01.920Z,24.40
2022-08-20T02:25:29.423Z,24.40
2022-08-20T02:27:56.547Z,24.40
2022-08-20T02:30:28.485Z,24.60
2022-08-20T02:32:56.463Z,24.40
2022-08-20T02:35:24.286Z,24.60
2022-08-20T02:37:51.067Z,24.40
2022-08-20T02:40:18.642Z,24.50
2022-08-20T02:42:56.975Z,24.60
2022-08-20T02:45:23.824Z,24.50
2022-08-20T02:47:52.641Z,24.30
2022-08-20T02:50:19.986Z,24.60
2022-08-20T02:52:52.047Z,24.60
2022-08-20T02:55:27.199Z,24.50
2022-08-20T02:57:58.915Z,24.30
2022-08-20T03:00:26.421Z,24.60
2022-08-20T03:02:53.199Z,24.40
2022-08-20T03:05:19.958Z,24.30
2022-08-20T03:07:48.158Z,24.60
2022-08-20T03:10:15.584Z,24.70
2022-08-20T03:12:42.319Z,24.40
2022-08-20T03:15:17.833Z,24.60
2022-08-20T03:17:44.999Z,24.50
2022-08-20T03:20:11.915Z,24.40
2022-08-20T03:22:38.649Z,24.50
2022-08-20T03:25:05.561Z,24.50
2022-08-20T03:27:32.719Z,24.50
2022-08-20T03:30:05.112Z,24.70
2022-08-20T03:32:31.835Z,24.60
2022-08-20T03:34:58.615Z,24.70
2022-08-20T03:37:25.421Z,24.50
2022-08-20T03:39:52.265Z,24.50
2022-08-20T03:42:19.047Z,24.40
2022-08-20T03:44:45.832Z,24.70
2022-08-20T03:47:12.644Z,24.50
2022-08-20T03:49:39.392Z,24.40
2022-08-20T03:52:06.161Z,24.70
2022-08-20T03:54:32.903Z,24.70
2022-08-20T03:57:00.449Z,24.70
2022-08-20T03:59:27.206Z,24.40
2022-08-20T04:01:54.860Z,24.50
2022-08-20T04:04:22.242Z,24.50
2022-08-20T04:06:49.031Z,24.40
2022-08-20T04:09:15.775Z,24.50
2022-08-20T04:11:42.618Z,24.60
2022-08-20T04:14:11.162Z,24.60
2022-08-20T04:16:38.274Z,24.50
2022-08-20T04:19:07.239Z,24.50
2022-08-20T04:21:34.541Z,24.60
2022-08-20T04:24:02.437Z,24.50
2022-08-20T04:26:29.511Z,24.70
2022-08-20T04:28:56.309Z,24.60
2022-08-20T04:31:32.618Z,24.70
2022-08-20T04:34:00.499Z,24.60
2022-08-20T04:36:27.344Z,24.50
2022-08-20T04:38:54.113Z,24.50
2022-08-20T04:41:23.613Z,24.60
2022-08-20T04:43:51.303Z,24.60
2022-08-20T04:46:18.162Z,24.70
2022-08-20T04:48:49.163Z,24.70
2022-08-20T04:51:17.400Z,24.60
2022-08-20T04:53:52.036Z,24.70
2022-08-20T04:56:23.613Z,24.70
2022-08-20T04:58:51.399Z,24.50
2022-08-20T05:01:18.369Z,24.50
2022-08-20T05:03:47.829Z,24.70
2022-08-20T05:06:16.297Z,24.40
2022-08-20T05:08:43.186Z,24.60
2022-08-20T05:11:33.610Z,24.50
2022-08-20T05:13:56.927Z,24.50
2022-08-20T05:16:24.540Z,24.50
2022-08-20T05:18:52.600Z,24.50
2022-08-20T05:21:20.236Z,24.70
2022-08-20T05:23:47.061Z,24.70
2022-08-20T05:26:16.114Z,24.50
2022-08-20T05:28:57.213Z,24.70
2022-08-20T05:31:32.137Z,24.50
2022-08-20T05:34:11.058Z,24.70
2022-08-20T05:36:45.551Z,24.70
2022-08-20T05:39:13.982Z,24.80
2022-08-20T05:41:40.785Z,24.60
2022-08-20T05:44:10.875Z,24.60
2022-08-20T05:46:40.831Z,24.80
2022-08-20T05:49:08.713Z,24.50
2022-08-20T05:51:36.978Z,24.80
2022-08-20T05:54:04.195Z,24.50
2022-08-20T05:56:31.174Z,24.80
2022-08-20T05:58:59.313Z,24.70
2022-08-20T06:01:26.132Z,24.70
2022-08-20T06:04:11.348Z,24.70
2022-08-20T06:06:46.149Z,24.70
2022-08-20T06:09:16.485Z,24.70
2022-08-20T06:11:54.657Z,24.50
2022-08-20T06:14:26.589Z,24.50
2022-08-20T06:16:57.748Z,24.50
2022-08-20T06:19:26.585Z,24.70
2022-08-20T06:21:53.832Z,24.80
2022-08-20T06:24:21.404Z,24.80
2022-08-20T06:26:48.237Z,24.80
2022-08-20T06:29:15.561Z,24.70
2022-08-20T06:31:42.318Z,24.70
2022-08-20T06:34:09.111Z,24.80
2022-08-20T06:36:35.839Z,24.80
2022-08-20T06:39:02.583Z,24.50
2022-08-20T06:41:35.810Z,24.60
2022-08-20T06:44:03.427Z,24.70
2022-08-20T06:46:30.165Z,24.70
2022-08-20T06:48:56.905Z,24.50
2022-08-20T06:51:23.653Z,24.70
2022-08-20T06:53:50.429Z,24.70
2022-08-20T06:56:17.186Z,24.50
2022-08-20T06:58:44.051Z,24.50
2022-08-20T07:01:11.533Z,24.70
2022-08-20T07:03:38.886Z,24.30
2022-08-20T07:06:05.993Z,24.90
2022-08-20T07:08:32.931Z,24.60
2022-08-20T07:10:59.835Z,24.80
2022-08-20T07:13:26.649Z,24.90
2022-08-20T07:15:54.186Z,24.50
2022-08-20T07:18:27.784Z,24.70
2022-08-20T07:20:57.357Z,24.90
2022-08-20T07:23:27.436Z,24.60
2022-08-20T07:25:55.716Z,24.90
2022-08-20T07:28:23.181Z,24.60
2022-08-20T07:31:20.419Z,25.40
2022-08-20T07:33:50.437Z,24.50
2022-08-20T07:36:17.790Z,24.50
2022-08-20T07:38:47.250Z,24.60
2022-08-20T07:41:15.064Z,24.80
2022-08-20T07:43:42.451Z,24.80
2022-08-20T07:46:09.431Z,24.60
2022-08-20T07:48:37.258Z,24.80
2022-08-20T07:51:04.370Z,24.70
2022-08-20T07:53:35.944Z,24.90
2022-08-20T07:56:06.583Z,24.60
2022-08-20T07:58:35.816Z,24.60
2022-08-20T08:01:02.782Z,24.80
2022-08-20T08:03:40.657Z,24.90
2022-08-20T08:06:17.229Z,24.70
2022-08-20T08:08:55.565Z,24.60
2022-08-20T08:11:22.374Z,24.90
2022-08-20T08:13:49.124Z,24.40
2022-08-20T08:16:15.860Z,24.70
2022-08-20T08:18:46.748Z,24.70
2022-08-20T08:21:13.507Z,24.70
2022-08-20T08:23:44.745Z,24.80
2022-08-20T08:26:15.966Z,24.50
2022-08-20T08:28:45.716Z,24.70
2022-08-20T08:31:12.511Z,24.80
2022-08-20T08:33:40.780Z,24.60
2022-08-20T08:36:09.775Z,25.00
2022-08-20T08:38:37.975Z,24.70
2022-08-20T08:41:12.587Z,24.80
2022-08-20T08:43:39.370Z,24.70
2022-08-20T08:46:06.556Z,24.80
2022-08-20T08:48:35.076Z,24.70
2022-08-20T08:51:02.773Z,24.60
2022-08-20T08:53:31.297Z,25.10
2022-08-20T08:55:59.927Z,24.90
2022-08-20T08:58:28.005Z,24.80
2022-08-20T09:00:57.412Z,24.80
2022-08-20T09:03:25.854Z,24.80
2022-08-20T09:05:53.269Z,24.80
2022-08-20T09:10:47.177Z,24.70
2022-08-20T09:13:13.908Z,24.70
2022-08-20T09:15:40.671Z,24.90
2022-08-20T09:18:07.412Z,24.90
2022-08-20T09:20:34.828Z,24.80
2022-08-20T09:23:01.624Z,24.90
2022-08-20T09:25:28.350Z,24.70
2022-08-20T09:27:55.148Z,24.70
2022-08-20T09:30:21.880Z,24.90
2022-08-20T09:32:50.177Z,24.70
2022-08-20T09:35:16.946Z,24.70
2022-08-20T09:37:46.201Z,24.70
2022-08-20T09:40:21.347Z,24.90
2022-08-20T09:42:48.639Z,24.70
2022-08-20T09:45:15.482Z,24.80
2022-08-20T09:47:55.188Z,24.80
2022-08-20T09:50:25.167Z,24.70
2022-08-20T09:52:51.987Z,24.80
2022-08-20T09:55:26.676Z,24.70
2022-08-20T09:57:53.404Z,24.80
2022-08-20T10:00:20.249Z,24.70
2022-08-20T10:02:46.999Z,24.90
2022-08-20T10:05:13.811Z,24.80
2022-08-20T10:07:40.676Z,24.70
2022-08-20T10:10:07.989Z,24.80
2022-08-20T10:12:34.758Z,25.00
2022-08-20T10:15:01.632Z,24.90
2022-08-20T10:17:28.532Z,24.90
2022-08-20T10:19:55.344Z,25.00
2022-08-20T10:22:22.125Z,24.90
2022-08-20T10:24:48.924Z,24.70
2022-08-20T10:27:15.670Z,25.00
2022-08-20T10:29:46.766Z,24.80
2022-08-20T10:32:14.753Z,24.80
2022-08-20T10:34:42.293Z,25.00
2022-08-20T10:37:09.432Z,25.00
2022-08-20T10:39:36.267Z,24.80
2022-08-20T10:42:03.220Z,24.80
2022-08-20T10:44:30.721Z,24.90
2022-08-20T10:46:57.493Z,25.00
2022-08-20T10:49:24.304Z,25.00
2022-08-20T10:51:51.076Z,24.90
2022-08-20T10:54:18.231Z,24.80
2022-08-20T10:56:45.085Z,24.90
2022-08-20T10:59:11.824Z,25.00
2022-08-20T11:01:38.684Z,25.00
2022-08-20T11:04:05.444Z,25.00
2022-08-20T11:06:32.200Z,25.00
2022-08-20T11:08:58.924Z,24.90
2022-08-20T11:11:25.696Z,24.90
2022-08-20T11:13:52.425Z,25.00
2022-08-20T11:16:19.191Z,24.90
2022-08-20T11:18:47.457Z,25.00
2022-08-20T11:21:14.663Z,24.90
2022-08-20T11:23:41.401Z,24.80
2022-08-20T11:26:08.534Z,24.90
2022-08-20T11:28:35.303Z,24.80
2022-08-20T11:31:02.226Z,25.00
2022-08-20T11:33:29.057Z,24.80
2022-08-20T11:35:55.820Z,24.90
2022-08-20T11:38:22.679Z,24.80
2022-08-20T11:40:49.446Z,25.00
2022-08-20T11:43:17.210Z,24.90
2022-08-20T11:45:48.303Z,25.10
2022-08-20T11:48:15.171Z,24.80
2022-08-20T11:50:41.946Z,24.90
2022-08-20T11:53:08.750Z,25.10
2022-08-20T11:55:35.695Z,24.90
2022-08-20T11:58:02.571Z,25.00
2022-08-20T12:00:32.702Z,25.10
2022-08-20T12:03:00.518Z,25.00
2022-08-20T12:05:29.477Z,25.00
2022-08-20T12:07:56.567Z,25.00
2022-08-20T12:10:24.550Z,25.10
2022-08-20T12:12:51.537Z,24.90
2022-08-20T12:15:18.332Z,24.80
2022-08-20T12:17:45.071Z,24.90
2022-08-20T12:20:12.315Z,25.10
2022-08-20T12:22:39.141Z,25.00
2022-08-20T12:25:06.120Z,24.90
2022-08-20T12:27:33.003Z,24.90
2022-08-20T12:30:01.655Z,25.10
2022-08-20T12:32:29.021Z,25.10
2022-08-20T12:34:56.198Z,25.10
2022-08-20T12:37:23.632Z,24.90
2022-08-20T12:39:51.568Z,24.90
2022-08-20T12:42:18.535Z,25.00
2022-08-20T12:44:45.293Z,25.00
2022-08-20T12:47:13.096Z,25.00
2022-08-20T12:49:41.366Z,25.00
2022-08-20T12:52:08.147Z,24.90
2022-08-20T12:54:35.137Z,24.90
2022-08-20T12:57:01.867Z,24.90
2022-08-20T12:59:34.780Z,24.90
2022-08-20T13:02:13.945Z,24.80
2022-08-20T13:04:45.165Z,25.00
2022-08-20T13:07:12.643Z,24.80
2022-08-20T13:09:40.447Z,25.00
2022-08-20T13:12:07.703Z,24.80
2022-08-20T13:14:34.738Z,24.90
2022-08-20T13:17:01.527Z,25.00
2022-08-20T13:19:28.500Z,24.90
2022-08-20T13:21:55.362Z,24.80
2022-08-20T13:24:22.174Z,25.10
2022-08-20T13:26:49.137Z,25.10
2022-08-20T13:29:16.444Z,25.00
2022-08-20T13:31:43.247Z,24.90
2022-08-20T13:34:09.990Z,24.90
2022-08-20T13:36:36.700Z,25.00
2022-08-20T13:39:06.567Z,24.90
2022-08-20T13:41:33.535Z,25.00
2022-08-20T13:44:00.271Z,25.10
2022-08-20T13:46:27.068Z,25.00
2022-08-20T13:48:53.865Z,24.90
2022-08-20T13:51:21.720Z,24.90
2022-08-20T13:53:48.585Z,24.90
2022-08-20T13:56:15.371Z,25.00
2022-08-20T13:58:42.198Z,25.10
2022-08-20T14:01:09.011Z,25.00
2022-08-20T14:03:35.852Z,24.90
2022-08-20T14:06:02.978Z,24.90
2022-08-20T14:08:29.797Z,25.00
2022-08-20T14:10:56.575Z,24.90
2022-08-20T14:13:23.915Z,25.00
2022-08-20T14:15:50.759Z,24.90
2022-08-20T14:18:19.967Z,25.10
2022-08-20T14:20:46.774Z,25.00
2022-08-20T14:23:13.884Z,24.90
2022-08-20T14:25:40.659Z,24.90
2022-08-20T14:28:11.886Z,24.90
2022-08-20T14:30:38.651Z,24.90
2022-08-20T14:33:05.482Z,25.10
2022-08-20T14:35:32.216Z,25.00
2022-08-20T14:38:01.189Z,25.00
2022-08-20T14:40:28.045Z,24.70
2022-08-20T14:42:55.023Z,24.90
2022-08-20T14:45:21.957Z,25.20
2022-08-20T14:47:53.576Z,25.00
2022-08-20T14:50:22.338Z,24.90
2022-08-20T14:52:49.089Z,25.00
2022-08-20T14:55:17.829Z,25.20
2022-08-20T14:57:44.599Z,25.10
2022-08-20T15:00:12.489Z,25.10
2022-08-20T15:02:39.326Z,25.10
2022-08-20T15:05:07.081Z,24.90
2022-08-20T15:07:35.212Z,25.00
2022-08-20T15:10:02.043Z,25.10
2022-08-20T15:12:28.912Z,25.10
2022-08-20T15:14:55.672Z,25.00
2022-08-20T15:17:27.644Z,24.90
2022-08-20T15:19:54.454Z,24.90
2022-08-20T15:22:21.344Z,25.10
2022-08-20T15:24:48.156Z,24.90
2022-08-20T15:27:22.248Z,25.00
2022-08-20T15:29:49.608Z,24.90
2022-08-20T15:32:16.343Z,25.10
2022-08-20T15:34:43.090Z,25.10
2022-08-20T15:37:14.563Z,24.90
2022-08-20T15:39:41.496Z,24.90
2022-08-20T15:42:08.370Z,25.00
2022-08-20T15:44:36.704Z,25.10
2022-08-20T15:47:12.504Z,25.00
2022-08-20T15:49:39.261Z,25.00
2022-08-20T15:52:06.030Z,25.00
2022-08-20T15:54:32.783Z,24.90
2022-08-20T15:57:13.288Z,25.20
2022-08-20T15:59:40.036Z,25.20
2022-08-20T16:02:27.034Z,25.00
2022-08-20T16:05:12.449Z,25.20
2022-08-20T16:07:45.091Z,25.10
2022-08-20T16:10:32.077Z,25.00
2022-08-20T16:12:59.168Z,25.10
2022-08-20T16:15:29.956Z,25.20
2022-08-20T16:18:02.151Z,25.10
2022-08-20T16:20:32.909Z,25.10
2022-08-20T16:23:03.012Z,25.10
2022-08-20T16:25:45.463Z,25.20
2022-08-20T16:28:24.556Z,25.20
2022-08-20T16:30:58.556Z,24.90
2022-08-20T16:33:28.361Z,25.10
2022-08-20T16:35:57.229Z,25.00
2022-08-20T16:38:28.737Z,24.90
2022-08-20T16:40:57.059Z,24.90
2022-08-20T16:43:34.892Z,25.20
2022-08-20T16:46:06.400Z,25.20
2022-08-20T16:48:37.522Z,24.90
2022-08-20T16:51:09.230Z,25.10
2022-08-20T16:53:35.954Z,25.20
2022-08-20T16:56:02.785Z,25.10
2022-08-20T16:58:29.554Z,24.90
2022-08-20T17:01:14.663Z,25.20
2022-08-20T17:03:50.810Z,25.20
2022-08-20T17:06:26.626Z,25.00
2022-08-20T17:08:53.416Z,25.10
2022-08-20T17:11:23.221Z,25.20
2022-08-20T17:13:50.011Z,25.20
2022-08-20T17:16:18.123Z,24.90
2022-08-20T17:18:45.826Z,25.10
2022-08-20T17:21:13.872Z,24.90
2022-08-20T17:23:55.581Z,25.10
2022-08-20T17:26:32.418Z,25.10
2022-08-20T17:29:00.213Z,25.00
2022-08-20T17:31:40.876Z,25.20
2022-08-20T17:34:27.901Z,25.10
2022-08-20T17:37:11.163Z,25.20
2022-08-20T17:39:45.054Z,25.10
2022-08-20T17:42:14.674Z,25.30
2022-08-20T17:44:42.032Z,25.20
2022-08-20T17:47:12.461Z,24.90
2022-08-20T17:49:42.506Z,25.30
2022-08-20T17:52:28.271Z,25.00
2022-08-20T17:54:55.016Z,25.40
2022-08-20T17:57:25.238Z,24.90
2022-08-20T18:00:01.303Z,24.90
2022-08-20T18:02:29.058Z,25.00
2022-08-20T18:04:55.862Z,25.10
2022-08-20T18:07:34.420Z,24.90
2022-08-20T18:10:04.167Z,25.30
2022-08-20T18:12:53.033Z,24.90
2022-08-20T18:15:25.098Z,24.90
2022-08-20T18:18:04.226Z,24.90
2022-08-20T18:20:49.616Z,25.10
2022-08-20T18:23:16.358Z,25.20
2022-08-20T18:25:46.122Z,25.10
2022-08-20T18:28:17.962Z,24.90
2022-08-20T18:30:57.348Z,25.10
2022-08-20T18:33:33.974Z,25.10
2022-08-20T18:36:09.251Z,25.00
2022-08-20T18:38:38.281Z,25.20
2022-08-20T18:41:15.278Z,25.40
2022-08-20T18:43:42.175Z,25.20
2022-08-20T18:46:13.410Z,25.00
2022-08-20T18:48:49.954Z,25.10
2022-08-20T18:51:16.697Z,25.40
2022-08-20T18:53:46.973Z,25.40
2022-08-20T18:56:18.801Z,25.30
2022-08-20T18:58:58.189Z,25.20
2022-08-20T19:01:25.221Z,25.10
2022-08-20T19:03:52.656Z,25.10
2022-08-20T19:06:28.692Z,24.90
2022-08-20T19:09:04.772Z,25.20
2022-08-20T19:11:47.022Z,25.10
2022-08-20T19:14:27.883Z,25.20
2022-08-20T19:17:09.938Z,25.20
2022-08-20T19:19:36.828Z,25.10
2022-08-20T19:22:03.631Z,25.10
2022-08-20T19:24:31.804Z,25.00
2022-08-20T19:26:59.280Z,25.10
2022-08-20T19:29:30.205Z,25.40
2022-08-20T19:32:00.790Z,24.90
2022-08-20T19:34:27.716Z,25.00
2022-08-20T19:36:57.301Z,25.00
2022-08-20T19:39:24.701Z,25.30
2022-08-20T19:42:00.406Z,25.30
2022-08-20T19:44:31.640Z,25.10
2022-08-20T19:46:58.574Z,25.00
2022-08-20T19:49:42.898Z,25.40
2022-08-20T19:52:28.527Z,25.40
2022-08-20T19:54:58.870Z,25.10
2022-08-20T19:57:28.158Z,24.90
2022-08-20T19:59:54.971Z,25.40
2022-08-20T20:02:21.872Z,25.40
2022-08-20T20:04:55.330Z,25.40
2022-08-20T20:07:28.582Z,25.30
2022-08-20T20:09:56.069Z,24.90
2022-08-20T20:12:23.240Z,25.40
2022-08-20T20:14:50.682Z,25.10
2022-08-20T20:17:23.125Z,25.10
2022-08-20T20:19:50.040Z,24.90
2022-08-20T20:22:20.085Z,24.80
2022-08-20T20:24:48.541Z,25.50
2022-08-20T20:27:20.286Z,25.80
2022-08-20T20:29:48.839Z,25.00
2022-08-20T20:32:24.684Z,25.30
2022-08-20T20:35:00.746Z,25.60
2022-08-20T20:37:34.790Z,24.80
2022-08-20T20:40:19.233Z,25.00
2022-08-20T20:42:55.875Z,25.30
2022-08-20T20:45:23.077Z,25.10
2022-08-20T20:47:51.054Z,25.40
2022-08-20T20:50:34.189Z,25.30
2022-08-20T20:53:01.079Z,25.20
2022-08-20T20:55:28.903Z,25.30
2022-08-20T20:57:57.626Z,25.20
2022-08-20T21:00:25.546Z,25.40
2022-08-20T21:02:52.431Z,25.10
2022-08-20T21:05:19.428Z,25.30
2022-08-20T21:07:50.351Z,25.30
2022-08-20T21:10:18.036Z,25.40
2022-08-20T21:12:47.074Z,25.30
2022-08-20T21:15:17.443Z,25.10
2022-08-20T21:17:44.192Z,25.10
2022-08-20T21:20:11.189Z,25.20
2022-08-20T21:22:37.924Z,25.40
2022-08-20T21:25:04.924Z,25.10
2022-08-20T21:27:31.752Z,25.30
2022-08-20T21:30:00.836Z,25.10
2022-08-20T21:32:27.629Z,25.30
2022-08-20T21:34:54.428Z,25.30
2022-08-20T21:37:21.144Z,25.20
2022-08-20T21:39:47.943Z,25.30
2022-08-20T21:42:28.759Z,25.30
2022-08-20T21:44:56.692Z,25.30
2022-08-20T21:47:23.440Z,25.30
2022-08-20T21:49:50.184Z,25.20
2022-08-20T21:52:16.983Z,25.30
2022-08-20T21:54:43.728Z,25.30
2022-08-20T21:57:14.818Z,25.30
2022-08-20T21:59:41.575Z,25.20
2022-08-20T22:02:08.384Z,25.20
2022-08-20T22:04:35.743Z,25.20
2022-08-20T22:07:03.144Z,25.10
2022-08-20T22:09:30.441Z,25.30
2022-08-20T22:11:57.569Z,25.10
2022-08-20T22:14:27.732Z,25.30
2022-08-20T22:16:54.459Z,25.30
2022-08-20T22:19:21.213Z,25.10
2022-08-20T22:21:49.486Z,25.10
2022-08-20T22:24:16.346Z,25.20
2022-08-20T22:26:43.119Z,25.20
2022-08-20T22:29:10.239Z,25.30
2022-08-20T22:31:37.668Z,25.10
2022-08-20T22:34:04.472Z,25.10
2022-08-20T22:36:31.275Z,25.30
2022-08-20T22:38:58.071Z,25.10
2022-08-20T22:41:24.959Z,25.40
2022-08-20T22:43:56.618Z,25.10
2022-08-20T22:46:27.278Z,25.30
2022-08-20T22:48:54.367Z,25.20
2022-08-20T22:51:23.194Z,25.30
2022-08-20T22:53:49.988Z,25.10
2022-08-20T22:56:19.723Z,25.20
2022-08-20T22:58:50.269Z,25.20
2022-08-20T23:01:17.757Z,25.40
2022-08-20T23:03:44.546Z,25.20
2022-08-20T23:06:11.259Z,25.50
2022-08-20T23:08:38.193Z,25.40
2022-08-20T23:11:05.097Z,25.10
2022-08-20T23:13:31.878Z,25.20
2022-08-20T23:16:00.897Z,25.10
2022-08-20T23:18:27.649Z,25.30
2022-08-20T23:20:56.014Z,25.40
2022-08-20T23:23:23.576Z,25.20
2022-08-20T23:25:50.359Z,25.30
2022-08-20T23:28:20.590Z,25.30
2022-08-20T23:30:47.470Z,25.20
2022-08-20T23:33:14.268Z,25.30
2022-08-20T23:35:41.033Z,25.30
2022-08-20T23:38:07.889Z,25.30
2022-08-20T23:40:34.821Z,25.30
2022-08-20T23:43:01.632Z,25.10
2022-08-20T23:45:28.413Z,25.20
2022-08-20T23:47:55.148Z,25.20
2022-08-20T23:50:24.245Z,25.30
2022-08-20T23:52:51.502Z,25.30
2022-08-20T23:55:18.783Z,25.10
2022-08-20T23:57:45.534Z,25.20
